バンダルスリブガワン の空港の天気 - METARとTAF

ブルネイ国際空港 ( WBSB / BWN ) - ブルネイ バンダルスリブガワン
飛行場実況気象(Metar)
観測時間01/21 01:30 BNT (01/20 17:30 UTC)
風向・風速南南西 3m/s
視程10km以上
天気現象
少しの雲 雲底高度 90m
少しの雲 雲底高度 460m
全天の8割程度の雲 雲底高度 4270m
気温24℃
湿度100%
気圧1011hPa
METARWBSB 201730Z 21005KT 9999 FEW003 FEW015CB BKN140 24/24 Q1011 NOSIG
過去の天気等 Google飛行場航空写真 Wunderground天気予報

過去48時間のMETAR

飛行場予報(TAF)
発表時間: 1/21 01:00 BNT (1/20 17:00 UTC)
予報対象時間: 21日2時 BNT ~ 22日8時 BNT
風向・風速南南西 2m/s
視程10km以上
少しの雲 雲底高度 120m
少しの積乱雲 雲底高度 460m
21日2時 BNT ~ 21日4時 BNT に一時的に
視程8,000m
天気現象弱い雨
21日12時 BNT ~ 21日14時 BNT に徐々に
風向・風速北北西 5m/s
少しの雲 雲底高度 490m
少しの積乱雲 雲底高度 520m
TAF WBSB 201700Z 2018/2200 20004KT 9999 FEW004 FEW015CB
TEMPO 2018/2020 8000 -RA
BECMG 2104/2106 33010KT FEW016 FEW017CB